Time;durP1;ratioP1;P1;durP2;ratioP2;P2;SDS_P1;SDS_P2;PMS_P1;PMS_P2;Temp;Humidity;BMP_temperature;BMP_pressure;BME280_temperature;BME280_humidity;BME280_pressure;Samples;Min_cycle;Max_cycle;Signal;HPM_P1;HPM_P2
2022/08/27 00:02:15;;;;;;;;;;;18.80;99.90;;;;;;5010432;28;19921;-69
2022/08/27 00:04:43;;;;;;;;;;;18.80;99.90;;;;;;5009185;28;19954;-69
2022/08/27 00:07:10;;;;;;;;;;;18.80;99.90;;;;;;5009377;28;20009;-70
2022/08/27 00:09:37;;;;;;;;;;;18.80;99.90;;;;;;5012780;28;20008;-68
2022/08/27 00:12:07;;;;;;;;;;;18.80;99.90;;;;;;5008926;28;19928;-68
2022/08/27 00:14:34;;;;;;;;;;;18.80;99.90;;;;;;5002679;28;20316;-69
2022/08/27 00:17:01;;;;;;;;;;;18.80;99.90;;;;;;5010733;28;19930;-68
2022/08/27 00:19:28;;;;;;;;;;;18.80;99.90;;;;;;5016530;28;19928;-67
2022/08/27 00:21:55;;;;;;;;;;;18.70;99.90;;;;;;4996704;28;19929;-68
2022/08/27 00:24:22;;;;;;;;;;;18.80;99.90;;;;;;5010325;28;19929;-68
2022/08/27 00:26:52;;;;;;;;;;;18.80;99.90;;;;;;5015123;28;19933;-68
2022/08/27 00:29:20;;;;;;;;;;;18.80;99.90;;;;;;5011531;28;19928;-68
2022/08/27 00:31:47;;;;;;;;;;;18.70;99.90;;;;;;5009615;28;19944;-68
2022/08/27 00:34:14;;;;;;;;;;;18.80;99.90;;;;;;5006446;28;19921;-68
2022/08/27 00:36:41;;;;;;;;;;;18.80;99.90;;;;;;5014993;28;20376;-68
2022/08/27 00:39:08;;;;;;;;;;;18.70;99.90;;;;;;5005467;28;19932;-69
2022/08/27 00:41:34;;;;;;;;;;;18.70;99.90;;;;;;5013058;28;19929;-68
2022/08/27 00:44:01;;;;;;;;;;;18.70;99.90;;;;;;5009576;28;19922;-69
2022/08/27 00:46:32;;;;;;;;;;;18.70;99.90;;;;;;5003114;28;19932;-67
2022/08/27 00:49:00;;;;;;;;;;;18.70;99.90;;;;;;5001040;28;19929;-65
2022/08/27 00:51:28;;;;;;;;;;;18.70;99.90;;;;;;5002546;28;19921;-68
2022/08/27 00:53:57;;;;;;;;;;;18.70;99.90;;;;;;4999987;28;19921;-68
2022/08/27 00:56:26;;;;;;;;;;;18.60;99.90;;;;;;5002582;28;19977;-68
2022/08/27 00:58:54;;;;;;;;;;;18.60;99.90;;;;;;5000876;28;19921;-69
2022/08/27 01:01:23;;;;;;;;;;;18.60;99.90;;;;;;5007666;28;19928;-68
2022/08/27 01:03:55;;;;;;;;;;;18.60;99.90;;;;;;5008641;28;19985;-69
2022/08/27 01:06:23;;;;;;;;;;;18.60;99.90;;;;;;5008031;28;19921;-68
2022/08/27 01:08:52;;;;;;;;;;;18.50;99.90;;;;;;5014697;28;19928;-68
2022/08/27 01:11:19;;;;;;;;;;;18.50;99.90;;;;;;5002026;28;19933;-69
2022/08/27 01:13:46;;;;;;;;;;;18.50;99.90;;;;;;5002059;28;19936;-68
2022/08/27 01:16:17;;;;;;;;;;;18.50;99.90;;;;;;5003541;28;19929;-69
2022/08/27 01:18:44;;;;;;;;;;;18.40;99.90;;;;;;5003058;28;19967;-68
2022/08/27 01:21:20;;;;;;;;;;;18.40;99.90;;;;;;5005692;28;19925;-70
2022/08/27 01:23:50;;;;;;;;;;;18.50;99.90;;;;;;5004417;28;19929;-69
2022/08/27 01:26:19;;;;;;;;;;;18.40;99.90;;;;;;4999635;28;19933;-69
2022/08/27 01:28:46;;;;;;;;;;;18.40;99.90;;;;;;4997537;28;19933;-69
2022/08/27 01:31:13;;;;;;;;;;;18.40;99.90;;;;;;5004311;28;19961;-68
2022/08/27 01:33:40;;;;;;;;;;;18.40;99.90;;;;;;5011078;28;19932;-69
2022/08/27 01:36:07;;;;;;;;;;;18.40;99.90;;;;;;5007357;28;20357;-69
2022/08/27 01:38:34;;;;;;;;;;;18.30;99.90;;;;;;5006910;28;19921;-70
2022/08/27 01:41:01;;;;;;;;;;;18.30;99.90;;;;;;5009257;28;19921;-69
2022/08/27 01:43:31;;;;;;;;;;;18.30;99.90;;;;;;5013500;28;19975;-69
2022/08/27 01:45:58;;;;;;;;;;;18.40;99.90;;;;;;5005313;28;19933;-69
2022/08/27 01:48:25;;;;;;;;;;;18.40;99.90;;;;;;5012640;28;19928;-71
2022/08/27 01:50:52;;;;;;;;;;;18.40;99.90;;;;;;5004965;28;19921;-69
2022/08/27 01:53:19;;;;;;;;;;;18.40;99.90;;;;;;5007542;28;19929;-68
2022/08/27 01:55:47;;;;;;;;;;;18.40;99.90;;;;;;5001622;28;20754;-69
2022/08/27 01:58:15;;;;;;;;;;;18.40;99.90;;;;;;5004661;28;19921;-69
2022/08/27 02:00:44;;;;;;;;;;;18.40;99.90;;;;;;5003965;28;20328;-69
2022/08/27 02:03:12;;;;;;;;;;;18.30;99.90;;;;;;5004433;28;19921;-69
2022/08/27 02:05:39;;;;;;;;;;;18.30;99.90;;;;;;5007971;28;19921;-69
2022/08/27 02:08:06;;;;;;;;;;;18.30;99.90;;;;;;5013680;28;20298;-69
2022/08/27 02:10:37;;;;;;;;;;;18.30;99.90;;;;;;5007357;28;19928;-69
2022/08/27 02:13:05;;;;;;;;;;;18.20;99.90;;;;;;5013146;28;20288;-69
2022/08/27 02:15:33;;;;;;;;;;;18.20;99.90;;;;;;5002265;28;19921;-71
2022/08/27 02:18:01;;;;;;;;;;;18.20;99.90;;;;;;5007142;28;19971;-69
2022/08/27 02:20:30;;;;;;;;;;;18.20;99.90;;;;;;5002979;28;19921;-68
2022/08/27 02:22:57;;;;;;;;;;;18.20;99.90;;;;;;5000399;28;19932;-69
2022/08/27 02:25:23;;;;;;;;;;;18.20;99.90;;;;;;5001660;28;19928;-69
2022/08/27 02:27:50;;;;;;;;;;;18.20;99.90;;;;;;5009947;28;19932;-71
2022/08/27 02:30:19;;;;;;;;;;;18.20;99.90;;;;;;5012613;28;19924;-69
2022/08/27 02:32:46;;;;;;;;;;;18.10;99.90;;;;;;5010777;28;19925;-69
2022/08/27 02:35:15;;;;;;;;;;;18.10;99.90;;;;;;5005619;28;19921;-68
2022/08/27 02:37:42;;;;;;;;;;;18.10;99.90;;;;;;5013879;28;19975;-69
2022/08/27 02:40:10;;;;;;;;;;;18.10;99.90;;;;;;5010435;28;19944;-69
2022/08/27 02:42:37;;;;;;;;;;;18.10;99.90;;;;;;5008985;28;19925;-70
2022/08/27 02:45:05;;;;;;;;;;;18.10;99.90;;;;;;5009955;28;19925;-69
2022/08/27 02:47:32;;;;;;;;;;;18.10;99.90;;;;;;5011583;28;20295;-68
2022/08/27 02:49:59;;;;;;;;;;;18.10;99.90;;;;;;5007218;28;20300;-68
2022/08/27 02:52:28;;;;;;;;;;;18.10;99.90;;;;;;5008098;28;20397;-70
2022/08/27 02:54:55;;;;;;;;;;;18.00;99.90;;;;;;5008036;28;19991;-68
2022/08/27 02:57:22;;;;;;;;;;;18.00;99.90;;;;;;5003506;28;19921;-68
2022/08/27 02:59:49;;;;;;;;;;;18.00;99.90;;;;;;5006371;28;19956;-68
2022/08/27 03:02:15;;;;;;;;;;;18.00;99.90;;;;;;5004563;28;19929;-68
2022/08/27 03:04:42;;;;;;;;;;;18.00;99.90;;;;;;5010341;28;19928;-68
2022/08/27 03:07:09;;;;;;;;;;;18.00;99.90;;;;;;5032696;22;19929;-72
2022/08/27 03:09:37;;;;;;;;;;;17.90;99.90;;;;;;5009919;28;19948;-69
2022/08/27 03:12:05;;;;;;;;;;;17.90;99.90;;;;;;5010549;28;19941;-70
2022/08/27 03:14:32;;;;;;;;;;;17.90;99.90;;;;;;5006002;28;20389;-70
2022/08/27 03:18:16;;;;;;;;;;;17.90;99.90;;;;;;5017811;28;19925;-70
2022/08/27 03:19:44;;;;;;;;;;;17.90;99.90;;;;;;5028189;28;20035;-70
2022/08/27 03:22:11;;;;;;;;;;;17.80;99.90;;;;;;5028367;28;20027;-70
2022/08/27 03:24:40;;;;;;;;;;;17.80;99.90;;;;;;5030614;28;19940;-70
2022/08/27 03:27:06;;;;;;;;;;;17.80;99.90;;;;;;5030046;28;19975;-70
2022/08/27 03:29:34;;;;;;;;;;;17.80;99.90;;;;;;5043085;28;19925;-70
2022/08/27 03:32:01;;;;;;;;;;;17.70;99.90;;;;;;5029963;28;19925;-70
2022/08/27 03:34:27;;;;;;;;;;;17.70;99.90;;;;;;5030048;28;19925;-70
2022/08/27 03:36:54;;;;;;;;;;;17.70;99.90;;;;;;5029999;28;19932;-70
2022/08/27 03:39:21;;;;;;;;;;;17.70;99.90;;;;;;5029116;28;20031;-70
2022/08/27 03:41:49;;;;;;;;;;;17.70;99.90;;;;;;5029676;28;19925;-70
2022/08/27 03:44:16;;;;;;;;;;;17.80;99.90;;;;;;5029393;28;19975;-70
2022/08/27 03:46:43;;;;;;;;;;;17.80;99.90;;;;;;5029487;28;19925;-70
2022/08/27 03:49:09;;;;;;;;;;;17.80;99.90;;;;;;5029222;28;20412;-70
2022/08/27 03:51:36;;;;;;;;;;;17.80;99.90;;;;;;5032164;28;19929;-70
2022/08/27 03:54:03;;;;;;;;;;;17.80;99.90;;;;;;5033723;28;19925;-70
2022/08/27 03:56:37;;;;;;;;;;;17.80;99.90;;;;;;5033228;28;20415;-70
2022/08/27 03:59:06;;;;;;;;;;;17.80;99.90;;;;;;5033387;28;20027;-70
2022/08/27 04:01:33;;;;;;;;;;;17.80;99.90;;;;;;5033155;28;19925;-70
2022/08/27 04:04:00;;;;;;;;;;;17.80;99.90;;;;;;5033393;28;19936;-70
2022/08/27 04:06:27;;;;;;;;;;;17.80;99.90;;;;;;5035728;28;20372;-70
2022/08/27 04:08:53;;;;;;;;;;;17.80;99.90;;;;;;5043582;28;19925;-70
2022/08/27 04:11:20;;;;;;;;;;;17.80;99.90;;;;;;5041114;28;19936;-70
2022/08/27 04:13:47;;;;;;;;;;;17.80;99.90;;;;;;5043408;28;20006;-70
2022/08/27 04:16:15;;;;;;;;;;;17.70;99.90;;;;;;5041830;28;20024;-70
2022/08/27 04:18:42;;;;;;;;;;;17.70;99.90;;;;;;5040060;28;19925;-70
2022/08/27 04:21:10;;;;;;;;;;;17.70;99.90;;;;;;5043481;28;19924;-70
2022/08/27 04:23:37;;;;;;;;;;;17.70;99.90;;;;;;5045035;28;19928;-70
2022/08/27 04:26:05;;;;;;;;;;;17.70;99.90;;;;;;5045797;28;20356;-70
2022/08/27 04:28:32;;;;;;;;;;;17.70;99.90;;;;;;5043374;28;19924;-70
2022/08/27 04:30:58;;;;;;;;;;;17.70;99.90;;;;;;5044756;28;19924;-70
2022/08/27 04:33:26;;;;;;;;;;;17.60;99.90;;;;;;5044684;28;19940;-70
2022/08/27 04:35:57;;;;;;;;;;;17.70;99.90;;;;;;5043227;28;19924;-70
2022/08/27 04:38:24;;;;;;;;;;;17.70;99.90;;;;;;5039667;28;19970;-69
2022/08/27 04:43:35;;;;;;;;;;;17.70;99.90;;;;;;5055308;28;19967;-69
2022/08/27 04:46:02;;;;;;;;;;;17.60;99.90;;;;;;5037805;28;19925;-70
2022/08/27 04:48:30;;;;;;;;;;;17.60;99.90;;;;;;5032473;28;19925;-70
2022/08/27 04:50:56;;;;;;;;;;;17.60;99.90;;;;;;5045141;28;20299;-68
2022/08/27 04:53:23;;;;;;;;;;;17.60;99.90;;;;;;5028709;28;19994;-70
2022/08/27 04:55:51;;;;;;;;;;;17.70;99.90;;;;;;5045009;28;19921;-69
2022/08/27 04:58:19;;;;;;;;;;;17.70;99.90;;;;;;5036666;28;19928;-70
2022/08/27 05:00:47;;;;;;;;;;;17.60;99.90;;;;;;5046300;28;19933;-70
2022/08/27 05:03:15;;;;;;;;;;;17.60;99.90;;;;;;5032317;28;20036;-70
2022/08/27 05:05:43;;;;;;;;;;;17.60;99.90;;;;;;5036621;28;20431;-70
2022/08/27 05:08:11;;;;;;;;;;;17.60;99.90;;;;;;5047106;28;19946;-71
2022/08/27 05:10:39;;;;;;;;;;;17.60;99.90;;;;;;5044820;28;20427;-69
2022/08/27 05:13:06;;;;;;;;;;;17.60;99.90;;;;;;5044415;28;19925;-70
2022/08/27 05:15:33;;;;;;;;;;;17.60;99.90;;;;;;5044949;28;19924;-71
2022/08/27 05:17:59;;;;;;;;;;;17.60;99.90;;;;;;5051444;28;19924;-71
2022/08/27 05:20:26;;;;;;;;;;;17.60;99.90;;;;;;5044250;28;19974;-70
2022/08/27 05:22:55;;;;;;;;;;;17.60;99.90;;;;;;5036910;28;19925;-71
2022/08/27 05:25:22;;;;;;;;;;;17.50;99.90;;;;;;5046534;28;20285;-71
2022/08/27 05:27:49;;;;;;;;;;;17.60;99.90;;;;;;5044151;28;19936;-71
2022/08/27 05:30:15;;;;;;;;;;;17.60;99.90;;;;;;5047986;28;19931;-71
2022/08/27 05:32:43;;;;;;;;;;;17.60;99.90;;;;;;5044219;28;19924;-69
2022/08/27 05:35:10;;;;;;;;;;;17.60;99.90;;;;;;5050154;28;20419;-70
2022/08/27 05:37:37;;;;;;;;;;;17.60;99.90;;;;;;5044274;28;19933;-70
2022/08/27 05:40:05;;;;;;;;;;;17.60;99.90;;;;;;5040958;28;19925;-68
2022/08/27 05:42:33;;;;;;;;;;;17.60;99.90;;;;;;5044597;28;19925;-69
2022/08/27 05:44:59;;;;;;;;;;;17.60;99.90;;;;;;5028344;28;19932;-70
2022/08/27 05:47:26;;;;;;;;;;;17.60;99.90;;;;;;5037195;28;19952;-69
2022/08/27 05:49:53;;;;;;;;;;;17.60;99.90;;;;;;5033426;28;19964;-70
2022/08/27 05:52:20;;;;;;;;;;;17.60;99.90;;;;;;5031843;28;19975;-69
2022/08/27 05:54:46;;;;;;;;;;;17.70;99.90;;;;;;5043917;28;19979;-71
2022/08/27 05:57:15;;;;;;;;;;;17.70;99.90;;;;;;5030825;28;20392;-71
2022/08/27 06:02:27;;;;;;;;;;;17.60;99.90;;;;;;5034220;28;19925;-69
2022/08/27 06:04:54;;;;;;;;;;;17.60;99.90;;;;;;5051118;28;19924;-71
2022/08/27 06:07:20;;;;;;;;;;;17.60;99.90;;;;;;5043590;28;19925;-71
2022/08/27 06:09:47;;;;;;;;;;;17.60;99.90;;;;;;5042330;28;19929;-71
2022/08/27 06:12:15;;;;;;;;;;;17.60;99.90;;;;;;5046344;28;19975;-71
2022/08/27 06:14:42;;;;;;;;;;;17.60;99.90;;;;;;5042761;28;19932;-71
2022/08/27 06:17:09;;;;;;;;;;;17.60;99.90;;;;;;5041788;28;19925;-71
2022/08/27 06:19:36;;;;;;;;;;;17.60;99.90;;;;;;5043008;28;19932;-71
2022/08/27 06:22:03;;;;;;;;;;;17.60;99.90;;;;;;5049358;28;19956;-71
2022/08/27 06:24:30;;;;;;;;;;;17.60;99.90;;;;;;5043534;28;19932;-71
2022/08/27 06:26:57;;;;;;;;;;;17.70;99.90;;;;;;5042933;28;19925;-71
2022/08/27 06:29:25;;;;;;;;;;;17.60;99.90;;;;;;5044078;28;20020;-71
2022/08/27 06:31:55;;;;;;;;;;;17.60;99.90;;;;;;5043503;28;19951;-68
2022/08/27 06:34:22;;;;;;;;;;;17.50;99.90;;;;;;5045830;28;20446;-68
2022/08/27 06:36:48;;;;;;;;;;;17.50;99.90;;;;;;5043299;28;19929;-69
2022/08/27 06:39:15;;;;;;;;;;;17.50;99.90;;;;;;5046658;28;19925;-69
2022/08/27 06:41:42;;;;;;;;;;;17.50;99.90;;;;;;5037252;28;19924;-71
2022/08/27 06:44:13;;;;;;;;;;;17.40;99.90;;;;;;5043356;28;19932;-71
2022/08/27 06:46:41;;;;;;;;;;;17.40;99.90;;;;;;5044191;28;19925;-69
2022/08/27 06:49:08;;;;;;;;;;;17.40;99.90;;;;;;5037149;28;19928;-69
2022/08/27 06:51:36;;;;;;;;;;;17.40;99.90;;;;;;5030331;28;19928;-68
2022/08/27 06:54:05;;;;;;;;;;;17.50;99.90;;;;;;5033750;28;20415;-69
2022/08/27 06:56:32;;;;;;;;;;;17.50;99.90;;;;;;5031352;28;19932;-69
2022/08/27 06:59:00;;;;;;;;;;;17.40;99.90;;;;;;5024329;28;19929;-68
2022/08/27 07:01:28;;;;;;;;;;;17.40;99.90;;;;;;5039276;28;20334;-70
2022/08/27 07:03:57;;;;;;;;;;;17.40;99.90;;;;;;5041346;28;19924;-71
2022/08/27 07:06:24;;;;;;;;;;;17.40;99.90;;;;;;5043203;28;20501;-70
2022/08/27 07:08:51;;;;;;;;;;;17.50;99.90;;;;;;5034709;28;19924;-70
2022/08/27 07:11:18;;;;;;;;;;;17.50;99.90;;;;;;5039613;28;19952;-73
2022/08/27 07:13:46;;;;;;;;;;;17.50;99.90;;;;;;5034071;28;19924;-73
2022/08/27 07:16:14;;;;;;;;;;;17.60;99.90;;;;;;5032492;28;20379;-72
2022/08/27 07:18:41;;;;;;;;;;;17.60;99.90;;;;;;5033952;28;19925;-73
2022/08/27 07:21:09;;;;;;;;;;;17.60;99.90;;;;;;5023405;28;19925;-73
2022/08/27 07:23:37;;;;;;;;;;;17.60;99.90;;;;;;5025877;28;20359;-73
2022/08/27 07:26:06;;;;;;;;;;;17.60;99.90;;;;;;5029487;28;19925;-73
2022/08/27 07:28:33;;;;;;;;;;;17.80;99.90;;;;;;5026297;28;19932;-73
2022/08/27 07:31:00;;;;;;;;;;;17.80;99.90;;;;;;5027583;28;20281;-74
2022/08/27 07:33:27;;;;;;;;;;;17.80;99.90;;;;;;5025840;28;19973;-71
2022/08/27 07:35:54;;;;;;;;;;;17.70;99.90;;;;;;5024484;28;19925;-71
2022/08/27 07:38:22;;;;;;;;;;;17.60;99.90;;;;;;5041313;28;19924;-70
2022/08/27 07:40:51;;;;;;;;;;;17.70;99.90;;;;;;5046027;28;19986;-71
2022/08/27 07:46:02;;;;;;;;;;;17.60;99.90;;;;;;5034075;28;19927;-71
2022/08/27 07:48:29;;;;;;;;;;;17.60;99.90;;;;;;5027213;28;20385;-71
2022/08/27 07:50:56;;;;;;;;;;;17.50;99.90;;;;;;5033553;28;19925;-71
2022/08/27 07:53:25;;;;;;;;;;;17.60;99.90;;;;;;5025031;28;19937;-71
2022/08/27 07:55:51;;;;;;;;;;;17.60;99.90;;;;;;5036696;28;19928;-71
2022/08/27 07:58:18;;;;;;;;;;;17.60;99.90;;;;;;5033786;28;19924;-71
2022/08/27 08:00:45;;;;;;;;;;;17.60;99.90;;;;;;5026565;28;19940;-71
2022/08/27 08:03:12;;;;;;;;;;;17.60;99.90;;;;;;5031179;28;19924;-71
2022/08/27 08:05:41;;;;;;;;;;;17.50;99.90;;;;;;5033290;28;19933;-71
2022/08/27 08:08:08;;;;;;;;;;;17.50;99.90;;;;;;5031714;28;20296;-71
2022/08/27 08:10:36;;;;;;;;;;;17.50;99.90;;;;;;5029822;28;19964;-71
2022/08/27 08:13:04;;;;;;;;;;;17.60;99.90;;;;;;5032304;28;19932;-71
2022/08/27 08:15:31;;;;;;;;;;;17.50;99.90;;;;;;5027305;28;20031;-71
2022/08/27 08:17:57;;;;;;;;;;;17.50;99.90;;;;;;5034591;28;19929;-71
2022/08/27 08:20:24;;;;;;;;;;;17.60;99.90;;;;;;5029027;28;19956;-71
2022/08/27 08:22:51;;;;;;;;;;;17.60;99.90;;;;;;5033607;28;19928;-71
2022/08/27 08:25:18;;;;;;;;;;;17.50;99.90;;;;;;5036073;28;19925;-71
2022/08/27 08:27:46;;;;;;;;;;;17.50;99.90;;;;;;5028624;28;19925;-71
2022/08/27 08:30:14;;;;;;;;;;;17.40;99.90;;;;;;5034645;28;19925;-71
2022/08/27 08:32:42;;;;;;;;;;;17.30;99.90;;;;;;5035066;28;19925;-71
2022/08/27 08:35:09;;;;;;;;;;;17.40;99.90;;;;;;5030993;28;20058;-71
2022/08/27 08:37:36;;;;;;;;;;;17.40;99.90;;;;;;5042426;28;19931;-71
2022/08/27 08:40:04;;;;;;;;;;;17.40;99.90;;;;;;5039232;28;20393;-71
2022/08/27 08:42:34;;;;;;;;;;;17.40;99.90;;;;;;5041978;28;19939;-73
2022/08/27 08:45:04;;;;;;;;;;;17.40;99.90;;;;;;5032889;28;19925;-73
2022/08/27 08:47:32;;;;;;;;;;;17.40;99.90;;;;;;5042394;28;19925;-72
2022/08/27 08:50:02;;;;;;;;;;;17.30;99.90;;;;;;5026900;28;19987;-71
2022/08/27 08:52:32;;;;;;;;;;;17.30;99.90;;;;;;5047545;28;19932;-72
2022/08/27 08:55:03;;;;;;;;;;;17.30;99.90;;;;;;5035902;28;20344;-71
2022/08/27 08:57:32;;;;;;;;;;;17.30;99.90;;;;;;5027200;28;19933;-71
2022/08/27 09:00:02;;;;;;;;;;;17.40;99.90;;;;;;5042486;28;19928;-72
2022/08/27 09:02:30;;;;;;;;;;;17.40;99.90;;;;;;5039873;28;19932;-71
2022/08/27 09:04:58;;;;;;;;;;;17.40;99.90;;;;;;5048366;28;20392;-71
2022/08/27 09:07:30;;;;;;;;;;;17.40;99.90;;;;;;5042882;28;19925;-71
2022/08/27 09:10:00;;;;;;;;;;;17.30;99.90;;;;;;5050346;28;19925;-71
2022/08/27 09:12:29;;;;;;;;;;;17.20;99.90;;;;;;5040612;28;19929;-71
2022/08/27 09:14:57;;;;;;;;;;;17.30;99.90;;;;;;5029512;28;19964;-71
2022/08/27 09:17:24;;;;;;;;;;;17.40;99.90;;;;;;5042281;28;19931;-71
2022/08/27 09:19:52;;;;;;;;;;;17.40;99.90;;;;;;5044016;28;20408;-71
2022/08/27 09:22:22;;;;;;;;;;;17.40;99.90;;;;;;5037983;28;20472;-71
2022/08/27 09:24:53;;;;;;;;;;;17.40;99.90;;;;;;5042384;28;19983;-71
2022/08/27 09:27:20;;;;;;;;;;;17.50;99.90;;;;;;5030122;28;19933;-71
2022/08/27 09:29:48;;;;;;;;;;;17.50;99.90;;;;;;5032051;28;19925;-71
2022/08/27 09:32:15;;;;;;;;;;;17.50;99.90;;;;;;5034371;28;19950;-71
2022/08/27 09:34:43;;;;;;;;;;;17.60;99.90;;;;;;5040100;28;19925;-71
2022/08/27 09:37:14;;;;;;;;;;;17.60;99.90;;;;;;5039347;28;19976;-72
2022/08/27 09:39:44;;;;;;;;;;;17.60;99.90;;;;;;5026775;28;19932;-71
2022/08/27 09:42:22;;;;;;;;;;;17.70;99.90;;;;;;5040062;28;19932;-72
2022/08/27 09:44:48;;;;;;;;;;;17.70;99.90;;;;;;5038059;28;19933;-73
2022/08/27 09:47:15;;;;;;;;;;;17.70;99.90;;;;;;5046112;28;19925;-72
2022/08/27 09:49:42;;;;;;;;;;;17.80;99.90;;;;;;5035890;28;19956;-73
2022/08/27 09:52:09;;;;;;;;;;;17.80;99.90;;;;;;5032690;28;19933;-72
2022/08/27 09:54:40;;;;;;;;;;;17.70;99.90;;;;;;5040548;28;20293;-72
2022/08/27 09:57:08;;;;;;;;;;;17.70;99.90;;;;;;5040651;28;20455;-72
2022/08/27 09:59:36;;;;;;;;;;;17.70;99.90;;;;;;5036248;28;19924;-72
2022/08/27 10:02:06;;;;;;;;;;;17.80;99.90;;;;;;5039924;28;19925;-72
2022/08/27 10:04:36;;;;;;;;;;;17.90;99.90;;;;;;5041125;28;19925;-72
2022/08/27 10:07:14;;;;;;;;;;;18.00;99.90;;;;;;5043687;28;19925;-72
2022/08/27 10:09:47;;;;;;;;;;;18.00;99.90;;;;;;5049691;28;19929;-72
2022/08/27 10:12:19;;;;;;;;;;;18.00;99.90;;;;;;5040786;28;19933;-72
2022/08/27 10:14:48;;;;;;;;;;;18.00;99.90;;;;;;5035862;28;19932;-72
2022/08/27 10:17:17;;;;;;;;;;;18.10;99.90;;;;;;5029512;28;19925;-73
2022/08/27 10:19:52;;;;;;;;;;;18.00;99.90;;;;;;5028989;28;19957;-72
2022/08/27 10:22:27;;;;;;;;;;;18.10;99.90;;;;;;5034104;28;19924;-72
2022/08/27 10:25:02;;;;;;;;;;;18.20;99.90;;;;;;5030923;28;19932;-72
2022/08/27 10:27:33;;;;;;;;;;;18.30;99.90;;;;;;5032255;28;20024;-72
2022/08/27 10:30:02;;;;;;;;;;;18.40;99.90;;;;;;5038175;28;19929;-72
2022/08/27 10:32:37;;;;;;;;;;;18.40;99.90;;;;;;5040347;28;19925;-71
2022/08/27 10:35:09;;;;;;;;;;;18.40;99.90;;;;;;5039619;28;20019;-71
2022/08/27 10:37:40;;;;;;;;;;;18.50;99.90;;;;;;5035930;28;20388;-71
2022/08/27 10:40:13;;;;;;;;;;;18.40;99.90;;;;;;5023314;28;20367;-72
2022/08/27 10:42:45;;;;;;;;;;;18.50;99.90;;;;;;5036684;28;20273;-71
2022/08/27 10:45:16;;;;;;;;;;;18.50;99.90;;;;;;5023363;28;19964;-71
2022/08/27 10:47:55;;;;;;;;;;;18.70;99.90;;;;;;5039402;28;20015;-71
2022/08/27 10:50:27;;;;;;;;;;;18.70;99.90;;;;;;5042126;28;19928;-72
2022/08/27 10:52:58;;;;;;;;;;;18.80;99.90;;;;;;5032444;28;19925;-71
2022/08/27 10:55:29;;;;;;;;;;;18.90;99.90;;;;;;5030684;28;20392;-72
2022/08/27 10:58:02;;;;;;;;;;;19.10;99.90;;;;;;5030616;28;19983;-71
2022/08/27 11:00:33;;;;;;;;;;;19.20;99.90;;;;;;5053254;28;19925;-71
2022/08/27 11:03:02;;;;;;;;;;;19.40;99.90;;;;;;5035617;28;19932;-71
2022/08/27 11:05:31;;;;;;;;;;;19.40;99.90;;;;;;5041770;28;20328;-71
2022/08/27 11:08:02;;;;;;;;;;;19.50;99.90;;;;;;5042403;28;20015;-71
2022/08/27 11:10:32;;;;;;;;;;;19.40;99.90;;;;;;5042812;28;19933;-70
2022/08/27 11:13:00;;;;;;;;;;;19.50;99.90;;;;;;5047859;28;19925;-70
2022/08/27 11:15:29;;;;;;;;;;;19.50;99.90;;;;;;5036088;28;19929;-71
2022/08/27 11:18:00;;;;;;;;;;;19.70;99.90;;;;;;5030152;28;19929;-71
2022/08/27 11:20:29;;;;;;;;;;;19.90;99.90;;;;;;5041128;28;19924;-72
2022/08/27 11:22:58;;;;;;;;;;;20.00;99.90;;;;;;5022362;28;19975;-72
2022/08/27 11:25:34;;;;;;;;;;;20.00;99.90;;;;;;5034989;28;20012;-72
2022/08/27 11:28:02;;;;;;;;;;;20.00;99.90;;;;;;5051070;28;19925;-72
2022/08/27 11:30:36;;;;;;;;;;;19.80;99.90;;;;;;5042207;28;19971;-72
2022/08/27 11:33:07;;;;;;;;;;;20.00;99.90;;;;;;5024829;28;19935;-72
2022/08/27 11:35:40;;;;;;;;;;;20.10;99.90;;;;;;5034437;28;19971;-72
2022/08/27 11:38:24;;;;;;;;;;;20.20;99.90;;;;;;5035803;28;19929;-71
2022/08/27 11:40:59;;;;;;;;;;;20.20;99.90;;;;;;5035835;28;20301;-72
2022/08/27 11:43:28;;;;;;;;;;;20.30;99.90;;;;;;5046691;28;19972;-72
2022/08/27 11:45:57;;;;;;;;;;;20.30;99.90;;;;;;5047629;28;19963;-72
2022/08/27 11:48:24;;;;;;;;;;;20.50;99.90;;;;;;5041808;28;19925;-70
2022/08/27 11:50:57;;;;;;;;;;;20.50;99.90;;;;;;5048219;28;19975;-72
2022/08/27 11:53:25;;;;;;;;;;;20.60;99.90;;;;;;5035027;28;19925;-72
2022/08/27 11:55:52;;;;;;;;;;;20.70;99.90;;;;;;5049330;28;19932;-72
2022/08/27 11:58:26;;;;;;;;;;;20.70;99.90;;;;;;5036425;28;19932;-72
2022/08/27 12:00:53;;;;;;;;;;;20.80;99.90;;;;;;5041785;28;19928;-72
2022/08/27 12:03:25;;;;;;;;;;;21.10;99.90;;;;;;5031965;28;19945;-72
2022/08/27 12:06:07;;;;;;;;;;;21.30;99.90;;;;;;5044909;28;20350;-71
2022/08/27 12:08:35;;;;;;;;;;;21.50;99.90;;;;;;5038650;28;19924;-72
2022/08/27 12:11:08;;;;;;;;;;;21.60;99.90;;;;;;5042042;28;19974;-72
2022/08/27 12:13:39;;;;;;;;;;;21.70;99.90;;;;;;5044885;28;20459;-72
2022/08/27 12:16:14;;;;;;;;;;;21.70;99.90;;;;;;5045557;28;19925;-71
2022/08/27 12:18:46;;;;;;;;;;;21.90;99.90;;;;;;5036792;28;19925;-72
2022/08/27 12:21:16;;;;;;;;;;;21.90;99.90;;;;;;5044029;28;19937;-71
2022/08/27 12:23:48;;;;;;;;;;;21.80;99.90;;;;;;5046881;28;19936;-71
2022/08/27 12:26:18;;;;;;;;;;;21.90;99.90;;;;;;5046788;28;19925;-71
2022/08/27 12:28:47;;;;;;;;;;;22.00;99.90;;;;;;5042445;28;19924;-70
2022/08/27 12:31:17;;;;;;;;;;;22.00;99.90;;;;;;5049280;28;19925;-71
2022/08/27 12:33:46;;;;;;;;;;;22.00;99.90;;;;;;5048158;28;19932;-71
2022/08/27 12:36:15;;;;;;;;;;;22.00;99.90;;;;;;5044248;28;20366;-71
2022/08/27 12:38:46;;;;;;;;;;;22.00;99.90;;;;;;5045065;28;19932;-71
2022/08/27 12:41:24;;;;;;;;;;;22.00;99.90;;;;;;5040511;28;19936;-71
2022/08/27 12:44:01;;;;;;;;;;;21.90;99.90;;;;;;5046604;28;19971;-71
2022/08/27 12:46:28;;;;;;;;;;;21.80;99.90;;;;;;5045347;28;19925;-72
2022/08/27 12:48:56;;;;;;;;;;;21.80;99.90;;;;;;5037436;28;19931;-71
2022/08/27 12:51:24;;;;;;;;;;;21.80;99.90;;;;;;5047518;28;19960;-72
2022/08/27 12:53:54;;;;;;;;;;;21.80;99.90;;;;;;5033189;28;19925;-72
2022/08/27 12:56:28;;;;;;;;;;;21.80;99.90;;;;;;5033279;28;20416;-72
2022/08/27 12:59:00;;;;;;;;;;;21.70;99.90;;;;;;5046133;28;20308;-71
2022/08/27 13:01:35;;;;;;;;;;;21.70;99.90;;;;;;5041538;28;20396;-72
2022/08/27 13:04:02;;;;;;;;;;;21.70;99.90;;;;;;5045707;28;20383;-71
2022/08/27 13:06:31;;;;;;;;;;;21.70;99.90;;;;;;5044170;28;19924;-71
2022/08/27 13:08:59;;;;;;;;;;;21.70;99.90;;;;;;5042638;28;19928;-70
2022/08/27 13:11:27;;;;;;;;;;;21.70;99.90;;;;;;5041801;28;19929;-69
2022/08/27 13:14:07;;;;;;;;;;;21.70;99.90;;;;;;5047614;28;19983;-70
2022/08/27 13:16:34;;;;;;;;;;;21.70;99.90;;;;;;5041465;28;20308;-70
2022/08/27 13:19:00;;;;;;;;;;;21.60;99.90;;;;;;5047554;28;19963;-70
2022/08/27 13:21:28;;;;;;;;;;;21.60;99.90;;;;;;5042798;28;19931;-71
2022/08/27 13:23:56;;;;;;;;;;;21.80;99.90;;;;;;5039562;28;19924;-70
2022/08/27 13:26:24;;;;;;;;;;;21.90;99.90;;;;;;5042918;28;19925;-71
2022/08/27 13:28:51;;;;;;;;;;;21.90;99.90;;;;;;5041203;28;19932;-70
2022/08/27 13:31:20;;;;;;;;;;;22.00;99.90;;;;;;5047901;28;20368;-71
2022/08/27 13:33:47;;;;;;;;;;;22.00;99.90;;;;;;5044831;28;20339;-70
2022/08/27 13:36:14;;;;;;;;;;;22.00;99.90;;;;;;5040953;28;19925;-70
2022/08/27 13:38:43;;;;;;;;;;;22.10;99.90;;;;;;5044083;28;19925;-70
2022/08/27 13:41:11;;;;;;;;;;;22.10;99.90;;;;;;5045568;28;19932;-70
2022/08/27 13:43:41;;;;;;;;;;;22.10;99.90;;;;;;5049063;28;19924;-70
2022/08/27 13:46:09;;;;;;;;;;;22.00;99.90;;;;;;5043909;28;20354;-69
2022/08/27 13:48:39;;;;;;;;;;;22.00;99.90;;;;;;5038902;28;20347;-69
2022/08/27 13:51:07;;;;;;;;;;;22.00;99.90;;;;;;5049951;28;19929;-69
2022/08/27 13:56:24;;;;;;;;;;;21.90;99.90;;;;;;5047027;28;19920;-70
2022/08/27 13:58:51;;;;;;;;;;;21.80;99.90;;;;;;5042896;28;19932;-71
2022/08/27 14:01:24;;;;;;;;;;;21.90;99.90;;;;;;5038802;28;19929;-71
2022/08/27 14:03:57;;;;;;;;;;;21.80;99.90;;;;;;5037621;28;19929;-72
2022/08/27 14:06:24;;;;;;;;;;;21.70;99.90;;;;;;5037936;28;20023;-71
2022/08/27 14:08:51;;;;;;;;;;;21.70;99.90;;;;;;5045700;28;20019;-71
2022/08/27 14:11:22;;;;;;;;;;;21.70;99.90;;;;;;5031520;28;20010;-72
2022/08/27 14:13:49;;;;;;;;;;;21.70;99.90;;;;;;5036386;28;20358;-71
2022/08/27 14:16:22;;;;;;;;;;;21.70;99.90;;;;;;5043354;28;19925;-71
2022/08/27 14:18:51;;;;;;;;;;;21.70;99.90;;;;;;5038434;28;20044;-71
2022/08/27 14:21:19;;;;;;;;;;;21.70;99.90;;;;;;5041165;28;19979;-71
2022/08/27 14:23:46;;;;;;;;;;;21.60;99.90;;;;;;5045385;28;20351;-71
2022/08/27 14:26:13;;;;;;;;;;;21.60;99.90;;;;;;5043417;28;19932;-71
2022/08/27 14:28:40;;;;;;;;;;;21.70;99.90;;;;;;5041819;28;19925;-70
2022/08/27 14:31:07;;;;;;;;;;;21.70;99.90;;;;;;5040614;28;20020;-71
2022/08/27 14:33:34;;;;;;;;;;;21.70;99.90;;;;;;5048747;28;19928;-71
2022/08/27 14:36:01;;;;;;;;;;;21.80;99.90;;;;;;5041291;28;19925;-71